Terminal Aerodrome Forecast
Issued by NWS

Current Version | Previous Version | Graphics & Text | Print | Product List | Glossary Off
Versions: 1 2 3 4 5 6 7 8 9 10 11 12 13 14 15 16 17 18 19 20 21 22 23 24

000
FTUS41 KRNK 262322
TAFLWB
TAF
KLWB 262322Z 2700/2724 01003KT P6SM SCT060
      TEMPO 2705/2708 5SM BR SCT001
     FM270800 00000KT 1/4SM FG OVC001
     FM271330 13004KT P6SM SCT045=

USA.gov is the U.S. government's official web portal to all federal, state and local government web resources and services.